sensor_id;sensor_type;location;lat;lon;timestamp;P1;durP1;ratioP1;P2;durP2;ratioP2
7817;SDS011;3954;52.624;9.212;2023-05-07T00:02:10;10.38;;;9.45;;
7817;SDS011;3954;52.624;9.212;2023-05-07T00:04:36;10.98;;;9.88;;
7817;SDS011;3954;52.624;9.212;2023-05-07T00:07:03;11.63;;;10.52;;
7817;SDS011;3954;52.624;9.212;2023-05-07T00:09:30;11.85;;;10.77;;
7817;SDS011;3954;52.624;9.212;2023-05-07T00:11:56;12.35;;;11.15;;
7817;SDS011;3954;52.624;9.212;2023-05-07T00:14:23;15.60;;;14.10;;
7817;SDS011;3954;52.624;9.212;2023-05-07T00:16:50;12.23;;;10.93;;
7817;SDS011;3954;52.624;9.212;2023-05-07T00:19:16;12.43;;;11.20;;
7817;SDS011;3954;52.624;9.212;2023-05-07T00:21:42;11.10;;;10.10;;
7817;SDS011;3954;52.624;9.212;2023-05-07T00:24:07;10.75;;;9.77;;
7817;SDS011;3954;52.624;9.212;2023-05-07T00:26:33;11.83;;;10.67;;
7817;SDS011;3954;52.624;9.212;2023-05-07T00:28:59;12.52;;;11.27;;
7817;SDS011;3954;52.624;9.212;2023-05-07T00:31:27;13.23;;;11.83;;
7817;SDS011;3954;52.624;9.212;2023-05-07T00:33:53;12.82;;;11.52;;
7817;SDS011;3954;52.624;9.212;2023-05-07T00:36:19;12.75;;;11.55;;
7817;SDS011;3954;52.624;9.212;2023-05-07T00:38:45;13.15;;;11.85;;
7817;SDS011;3954;52.624;9.212;2023-05-07T00:41:11;12.70;;;11.50;;
7817;SDS011;3954;52.624;9.212;2023-05-07T00:43:37;12.45;;;11.25;;
7817;SDS011;3954;52.624;9.212;2023-05-07T00:46:03;12.52;;;11.35;;
7817;SDS011;3954;52.624;9.212;2023-05-07T00:48:30;12.40;;;11.27;;
7817;SDS011;3954;52.624;9.212;2023-05-07T00:50:56;12.93;;;11.63;;
7817;SDS011;3954;52.624;9.212;2023-05-07T00:53:22;12.68;;;11.50;;
7817;SDS011;3954;52.624;9.212;2023-05-07T00:55:48;11.82;;;10.63;;
7817;SDS011;3954;52.624;9.212;2023-05-07T00:58:14;11.43;;;10.43;;
7817;SDS011;3954;52.624;9.212;2023-05-07T01:00:41;12.43;;;11.25;;
7817;SDS011;3954;52.624;9.212;2023-05-07T01:03:07;12.27;;;11.18;;
7817;SDS011;3954;52.624;9.212;2023-05-07T01:05:34;11.50;;;10.45;;
7817;SDS011;3954;52.624;9.212;2023-05-07T01:08:01;12.02;;;10.88;;
7817;SDS011;3954;52.624;9.212;2023-05-07T01:10:27;11.63;;;10.53;;
7817;SDS011;3954;52.624;9.212;2023-05-07T01:12:55;12.65;;;11.48;;
7817;SDS011;3954;52.624;9.212;2023-05-07T01:15:22;12.10;;;10.90;;
7817;SDS011;3954;52.624;9.212;2023-05-07T01:17:48;11.95;;;10.85;;
7817;SDS011;3954;52.624;9.212;2023-05-07T01:20:14;12.35;;;11.25;;
7817;SDS011;3954;52.624;9.212;2023-05-07T01:22:42;13.13;;;11.93;;
7817;SDS011;3954;52.624;9.212;2023-05-07T01:25:08;13.77;;;12.48;;
7817;SDS011;3954;52.624;9.212;2023-05-07T01:27:34;13.02;;;11.75;;
7817;SDS011;3954;52.624;9.212;2023-05-07T01:30:02;12.68;;;11.52;;
7817;SDS011;3954;52.624;9.212;2023-05-07T01:32:29;13.83;;;12.50;;
7817;SDS011;3954;52.624;9.212;2023-05-07T01:34:58;14.10;;;12.73;;
7817;SDS011;3954;52.624;9.212;2023-05-07T01:37:24;14.68;;;13.20;;
7817;SDS011;3954;52.624;9.212;2023-05-07T01:39:52;12.95;;;11.68;;
7817;SDS011;3954;52.624;9.212;2023-05-07T01:42:18;13.57;;;12.27;;
7817;SDS011;3954;52.624;9.212;2023-05-07T01:44:44;13.55;;;12.25;;
7817;SDS011;3954;52.624;9.212;2023-05-07T01:47:10;13.88;;;12.48;;
7817;SDS011;3954;52.624;9.212;2023-05-07T01:49:36;13.70;;;12.40;;
7817;SDS011;3954;52.624;9.212;2023-05-07T01:52:02;14.10;;;12.80;;
7817;SDS011;3954;52.624;9.212;2023-05-07T01:54:29;13.25;;;11.95;;
7817;SDS011;3954;52.624;9.212;2023-05-07T01:56:56;13.53;;;12.23;;
7817;SDS011;3954;52.624;9.212;2023-05-07T01:59:23;14.20;;;12.80;;
7817;SDS011;3954;52.624;9.212;2023-05-07T02:01:49;14.05;;;12.65;;
7817;SDS011;3954;52.624;9.212;2023-05-07T02:04:15;13.95;;;12.52;;
7817;SDS011;3954;52.624;9.212;2023-05-07T02:06:41;14.68;;;13.02;;
7817;SDS011;3954;52.624;9.212;2023-05-07T02:09:07;13.65;;;12.32;;
7817;SDS011;3954;52.624;9.212;2023-05-07T02:11:33;15.68;;;14.13;;
7817;SDS011;3954;52.624;9.212;2023-05-07T02:14:01;15.50;;;14.10;;
7817;SDS011;3954;52.624;9.212;2023-05-07T02:16:27;15.63;;;13.93;;
7817;SDS011;3954;52.624;9.212;2023-05-07T02:18:53;16.10;;;14.50;;
7817;SDS011;3954;52.624;9.212;2023-05-07T02:21:19;14.63;;;13.20;;
7817;SDS011;3954;52.624;9.212;2023-05-07T02:23:46;14.95;;;13.45;;
7817;SDS011;3954;52.624;9.212;2023-05-07T02:26:12;15.60;;;14.00;;
7817;SDS011;3954;52.624;9.212;2023-05-07T02:28:38;14.57;;;12.80;;
7817;SDS011;3954;52.624;9.212;2023-05-07T02:31:05;14.68;;;13.27;;
7817;SDS011;3954;52.624;9.212;2023-05-07T02:33:31;13.50;;;12.10;;
7817;SDS011;3954;52.624;9.212;2023-05-07T02:36:04;13.70;;;12.40;;
7817;SDS011;3954;52.624;9.212;2023-05-07T02:38:30;14.77;;;13.38;;
7817;SDS011;3954;52.624;9.212;2023-05-07T02:40:56;15.75;;;14.20;;
7817;SDS011;3954;52.624;9.212;2023-05-07T02:43:22;16.10;;;14.50;;
7817;SDS011;3954;52.624;9.212;2023-05-07T02:45:48;16.23;;;14.63;;
7817;SDS011;3954;52.624;9.212;2023-05-07T02:48:16;16.17;;;14.48;;
7817;SDS011;3954;52.624;9.212;2023-05-07T02:50:42;16.67;;;14.98;;
7817;SDS011;3954;52.624;9.212;2023-05-07T02:53:08;17.48;;;15.57;;
7817;SDS011;3954;52.624;9.212;2023-05-07T02:55:34;16.35;;;14.75;;
7817;SDS011;3954;52.624;9.212;2023-05-07T02:58:00;16.40;;;14.80;;
7817;SDS011;3954;52.624;9.212;2023-05-07T03:00:26;16.38;;;14.77;;
7817;SDS011;3954;52.624;9.212;2023-05-07T03:02:52;17.70;;;15.90;;
7817;SDS011;3954;52.624;9.212;2023-05-07T03:05:19;17.55;;;15.85;;
7817;SDS011;3954;52.624;9.212;2023-05-07T03:07:45;18.17;;;16.33;;
7817;SDS011;3954;52.624;9.212;2023-05-07T03:10:12;17.10;;;15.40;;
7817;SDS011;3954;52.624;9.212;2023-05-07T03:12:39;16.65;;;14.95;;
7817;SDS011;3954;52.624;9.212;2023-05-07T03:15:05;19.17;;;17.20;;
7817;SDS011;3954;52.624;9.212;2023-05-07T03:17:31;16.97;;;15.17;;
7817;SDS011;3954;52.624;9.212;2023-05-07T03:19:57;18.73;;;16.80;;
7817;SDS011;3954;52.624;9.212;2023-05-07T03:22:25;18.13;;;16.25;;
7817;SDS011;3954;52.624;9.212;2023-05-07T03:24:51;18.40;;;16.50;;
7817;SDS011;3954;52.624;9.212;2023-05-07T03:27:17;18.92;;;17.13;;
7817;SDS011;3954;52.624;9.212;2023-05-07T03:29:43;20.55;;;18.40;;
7817;SDS011;3954;52.624;9.212;2023-05-07T03:32:09;18.10;;;16.30;;
7817;SDS011;3954;52.624;9.212;2023-05-07T03:34:35;19.35;;;17.33;;
7817;SDS011;3954;52.624;9.212;2023-05-07T03:37:01;21.13;;;18.90;;
7817;SDS011;3954;52.624;9.212;2023-05-07T03:39:28;19.30;;;17.40;;
7817;SDS011;3954;52.624;9.212;2023-05-07T03:41:54;18.98;;;17.08;;
7817;SDS011;3954;52.624;9.212;2023-05-07T03:44:20;17.45;;;15.65;;
7817;SDS011;3954;52.624;9.212;2023-05-07T03:46:46;18.70;;;16.70;;
7817;SDS011;3954;52.624;9.212;2023-05-07T03:49:12;18.38;;;16.48;;
7817;SDS011;3954;52.624;9.212;2023-05-07T03:51:38;16.60;;;14.90;;
7817;SDS011;3954;52.624;9.212;2023-05-07T03:54:04;16.48;;;14.88;;
7817;SDS011;3954;52.624;9.212;2023-05-07T03:56:31;16.53;;;14.90;;
7817;SDS011;3954;52.624;9.212;2023-05-07T03:58:57;14.27;;;12.88;;
7817;SDS011;3954;52.624;9.212;2023-05-07T04:01:23;14.38;;;12.98;;
7817;SDS011;3954;52.624;9.212;2023-05-07T04:03:49;14.50;;;13.03;;
7817;SDS011;3954;52.624;9.212;2023-05-07T04:06:16;13.90;;;12.50;;
7817;SDS011;3954;52.624;9.212;2023-05-07T04:08:42;15.25;;;13.65;;
7817;SDS011;3954;52.624;9.212;2023-05-07T04:11:08;15.52;;;13.90;;
7817;SDS011;3954;52.624;9.212;2023-05-07T04:13:35;14.07;;;12.68;;
7817;SDS011;3954;52.624;9.212;2023-05-07T04:16:02;14.70;;;13.23;;
7817;SDS011;3954;52.624;9.212;2023-05-07T04:18:28;13.43;;;12.10;;
7817;SDS011;3954;52.624;9.212;2023-05-07T04:20:54;14.07;;;12.68;;
7817;SDS011;3954;52.624;9.212;2023-05-07T04:23:20;11.88;;;10.68;;
7817;SDS011;3954;52.624;9.212;2023-05-07T04:25:46;12.50;;;11.20;;
7817;SDS011;3954;52.624;9.212;2023-05-07T04:28:12;11.68;;;10.48;;
7817;SDS011;3954;52.624;9.212;2023-05-07T04:30:40;12.15;;;10.98;;
7817;SDS011;3954;52.624;9.212;2023-05-07T04:33:06;11.15;;;10.15;;
7817;SDS011;3954;52.624;9.212;2023-05-07T04:35:32;11.20;;;10.20;;
7817;SDS011;3954;52.624;9.212;2023-05-07T04:37:58;12.43;;;11.27;;
7817;SDS011;3954;52.624;9.212;2023-05-07T04:40:24;11.23;;;10.13;;
7817;SDS011;3954;52.624;9.212;2023-05-07T04:42:50;10.10;;;9.10;;
7817;SDS011;3954;52.624;9.212;2023-05-07T04:45:18;10.32;;;9.38;;
7817;SDS011;3954;52.624;9.212;2023-05-07T04:47:45;11.00;;;10.00;;
7817;SDS011;3954;52.624;9.212;2023-05-07T04:50:11;9.73;;;8.82;;
7817;SDS011;3954;52.624;9.212;2023-05-07T04:52:37;9.90;;;9.00;;
7817;SDS011;3954;52.624;9.212;2023-05-07T04:55:03;9.82;;;8.93;;
7817;SDS011;3954;52.624;9.212;2023-05-07T04:57:29;9.90;;;8.90;;
7817;SDS011;3954;52.624;9.212;2023-05-07T04:59:55;9.43;;;8.52;;
7817;SDS011;3954;52.624;9.212;2023-05-07T05:02:21;10.30;;;9.40;;
7817;SDS011;3954;52.624;9.212;2023-05-07T05:04:48;10.27;;;9.37;;
7817;SDS011;3954;52.624;9.212;2023-05-07T05:07:14;10.82;;;9.82;;
7817;SDS011;3954;52.624;9.212;2023-05-07T05:09:40;10.27;;;9.32;;
7817;SDS011;3954;52.624;9.212;2023-05-07T05:12:06;10.57;;;9.50;;
7817;SDS011;3954;52.624;9.212;2023-05-07T05:14:32;11.00;;;10.00;;
7817;SDS011;3954;52.624;9.212;2023-05-07T05:16:58;8.70;;;7.97;;
7817;SDS011;3954;52.624;9.212;2023-05-07T05:19:24;9.68;;;8.77;;
7817;SDS011;3954;52.624;9.212;2023-05-07T05:21:52;9.00;;;8.20;;
7817;SDS011;3954;52.624;9.212;2023-05-07T05:24:18;10.00;;;9.03;;
7817;SDS011;3954;52.624;9.212;2023-05-07T05:26:45;9.13;;;8.30;;
7817;SDS011;3954;52.624;9.212;2023-05-07T05:29:10;9.10;;;8.20;;
7817;SDS011;3954;52.624;9.212;2023-05-07T05:31:37;9.60;;;8.70;;
7817;SDS011;3954;52.624;9.212;2023-05-07T05:34:02;9.73;;;8.83;;
7817;SDS011;3954;52.624;9.212;2023-05-07T05:36:28;9.88;;;8.95;;
7817;SDS011;3954;52.624;9.212;2023-05-07T05:38:56;10.38;;;9.38;;
7817;SDS011;3954;52.624;9.212;2023-05-07T05:41:23;9.00;;;8.20;;
7817;SDS011;3954;52.624;9.212;2023-05-07T05:43:49;9.43;;;8.63;;
7817;SDS011;3954;52.624;9.212;2023-05-07T05:46:15;9.90;;;9.00;;
7817;SDS011;3954;52.624;9.212;2023-05-07T05:48:41;9.40;;;8.50;;
7817;SDS011;3954;52.624;9.212;2023-05-07T05:51:07;9.23;;;8.40;;
7817;SDS011;3954;52.624;9.212;2023-05-07T05:53:33;10.07;;;9.18;;
7817;SDS011;3954;52.624;9.212;2023-05-07T05:56:01;10.52;;;9.63;;
7817;SDS011;3954;52.624;9.212;2023-05-07T05:58:27;9.95;;;9.00;;
7817;SDS011;3954;52.624;9.212;2023-05-07T06:00:53;9.73;;;8.82;;
7817;SDS011;3954;52.624;9.212;2023-05-07T06:03:19;10.60;;;9.63;;
7817;SDS011;3954;52.624;9.212;2023-05-07T06:05:45;9.80;;;8.90;;
7817;SDS011;3954;52.624;9.212;2023-05-07T06:08:11;10.80;;;9.80;;
7817;SDS011;3954;52.624;9.212;2023-05-07T06:10:37;10.60;;;9.60;;
7817;SDS011;3954;52.624;9.212;2023-05-07T06:13:05;10.23;;;9.32;;
7817;SDS011;3954;52.624;9.212;2023-05-07T06:15:31;9.68;;;8.80;;
7817;SDS011;3954;52.624;9.212;2023-05-07T06:17:57;10.43;;;9.52;;
7817;SDS011;3954;52.624;9.212;2023-05-07T06:20:23;9.70;;;8.88;;
7817;SDS011;3954;52.624;9.212;2023-05-07T06:22:49;10.57;;;9.68;;
7817;SDS011;3954;52.624;9.212;2023-05-07T06:25:15;10.37;;;9.47;;
7817;SDS011;3954;52.624;9.212;2023-05-07T06:27:41;10.00;;;9.10;;
7817;SDS011;3954;52.624;9.212;2023-05-07T06:30:08;10.82;;;9.82;;
7817;SDS011;3954;52.624;9.212;2023-05-07T06:32:35;10.70;;;9.70;;
7817;SDS011;3954;52.624;9.212;2023-05-07T06:35:01;10.43;;;9.53;;
7817;SDS011;3954;52.624;9.212;2023-05-07T06:37:27;10.82;;;9.82;;
7817;SDS011;3954;52.624;9.212;2023-05-07T06:39:52;10.47;;;9.57;;
7817;SDS011;3954;52.624;9.212;2023-05-07T06:42:18;10.02;;;9.13;;
7817;SDS011;3954;52.624;9.212;2023-05-07T06:44:44;9.48;;;8.68;;
7817;SDS011;3954;52.624;9.212;2023-05-07T06:47:12;9.40;;;8.60;;
7817;SDS011;3954;52.624;9.212;2023-05-07T06:49:38;9.60;;;8.80;;
7817;SDS011;3954;52.624;9.212;2023-05-07T06:52:04;9.07;;;8.27;;
7817;SDS011;3954;52.624;9.212;2023-05-07T06:54:30;8.82;;;8.13;;
7817;SDS011;3954;52.624;9.212;2023-05-07T06:56:56;8.57;;;7.88;;
7817;SDS011;3954;52.624;9.212;2023-05-07T06:59:23;8.80;;;8.00;;
7817;SDS011;3954;52.624;9.212;2023-05-07T07:01:49;8.30;;;7.60;;
7817;SDS011;3954;52.624;9.212;2023-05-07T07:04:16;8.77;;;7.97;;
7817;SDS011;3954;52.624;9.212;2023-05-07T07:06:42;7.35;;;6.75;;
7817;SDS011;3954;52.624;9.212;2023-05-07T07:09:08;7.90;;;7.20;;
7817;SDS011;3954;52.624;9.212;2023-05-07T07:11:35;7.88;;;7.18;;
7817;SDS011;3954;52.624;9.212;2023-05-07T07:14:01;7.50;;;6.90;;
7817;SDS011;3954;52.624;9.212;2023-05-07T07:16:26;7.40;;;6.85;;
7817;SDS011;3954;52.624;9.212;2023-05-07T07:18:52;8.20;;;7.50;;
7817;SDS011;3954;52.624;9.212;2023-05-07T07:21:20;8.10;;;7.40;;
7817;SDS011;3954;52.624;9.212;2023-05-07T07:23:46;7.65;;;7.05;;
7817;SDS011;3954;52.624;9.212;2023-05-07T07:26:12;8.30;;;7.60;;
7817;SDS011;3954;52.624;9.212;2023-05-07T07:28:47;7.20;;;6.60;;
7817;SDS011;3954;52.624;9.212;2023-05-07T07:31:13;7.25;;;6.55;;
7817;SDS011;3954;52.624;9.212;2023-05-07T07:33:39;7.28;;;6.68;;
7817;SDS011;3954;52.624;9.212;2023-05-07T07:36:05;7.55;;;6.85;;
7817;SDS011;3954;52.624;9.212;2023-05-07T07:38:33;7.30;;;6.60;;
7817;SDS011;3954;52.624;9.212;2023-05-07T07:40:59;7.47;;;6.88;;
7817;SDS011;3954;52.624;9.212;2023-05-07T07:43:26;7.30;;;6.70;;
7817;SDS011;3954;52.624;9.212;2023-05-07T07:45:52;7.75;;;6.97;;
7817;SDS011;3954;52.624;9.212;2023-05-07T07:48:18;7.18;;;6.57;;
7817;SDS011;3954;52.624;9.212;2023-05-07T07:50:44;8.10;;;7.40;;
7817;SDS011;3954;52.624;9.212;2023-05-07T07:53:10;16.65;;;15.15;;
7817;SDS011;3954;52.624;9.212;2023-05-07T07:55:39;11.48;;;10.57;;
7817;SDS011;3954;52.624;9.212;2023-05-07T07:58:05;13.00;;;11.93;;
7817;SDS011;3954;52.624;9.212;2023-05-07T08:00:31;9.25;;;8.45;;
7817;SDS011;3954;52.624;9.212;2023-05-07T08:02:57;7.32;;;6.72;;
7817;SDS011;3954;52.624;9.212;2023-05-07T08:05:24;6.75;;;6.22;;
7817;SDS011;3954;52.624;9.212;2023-05-07T08:07:50;7.20;;;6.60;;
7817;SDS011;3954;52.624;9.212;2023-05-07T08:10:17;6.83;;;6.23;;
7817;SDS011;3954;52.624;9.212;2023-05-07T08:12:48;6.75;;;6.22;;
7817;SDS011;3954;52.624;9.212;2023-05-07T08:15:14;7.40;;;6.80;;
7817;SDS011;3954;52.624;9.212;2023-05-07T08:17:40;6.60;;;6.10;;
7817;SDS011;3954;52.624;9.212;2023-05-07T08:20:07;7.80;;;7.20;;
7817;SDS011;3954;52.624;9.212;2023-05-07T08:22:33;7.07;;;6.47;;
7817;SDS011;3954;52.624;9.212;2023-05-07T08:24:59;6.60;;;6.10;;
7817;SDS011;3954;52.624;9.212;2023-05-07T08:27:25;6.90;;;6.30;;
7817;SDS011;3954;52.624;9.212;2023-05-07T08:29:52;7.18;;;6.55;;
7817;SDS011;3954;52.624;9.212;2023-05-07T08:32:18;6.53;;;6.03;;
7817;SDS011;3954;52.624;9.212;2023-05-07T08:34:44;7.20;;;6.55;;
7817;SDS011;3954;52.624;9.212;2023-05-07T08:37:11;7.50;;;6.80;;
7817;SDS011;3954;52.624;9.212;2023-05-07T08:39:37;6.93;;;6.35;;
7817;SDS011;3954;52.624;9.212;2023-05-07T08:42:03;7.00;;;6.40;;
7817;SDS011;3954;52.624;9.212;2023-05-07T08:44:30;7.75;;;7.05;;
7817;SDS011;3954;52.624;9.212;2023-05-07T08:47:00;7.80;;;7.10;;
7817;SDS011;3954;52.624;9.212;2023-05-07T08:49:27;7.70;;;7.00;;
7817;SDS011;3954;52.624;9.212;2023-05-07T08:51:53;7.63;;;7.03;;
7817;SDS011;3954;52.624;9.212;2023-05-07T08:54:20;12.07;;;11.10;;
7817;SDS011;3954;52.624;9.212;2023-05-07T08:56:46;13.88;;;12.88;;
7817;SDS011;3954;52.624;9.212;2023-05-07T08:59:12;8.45;;;7.70;;
7817;SDS011;3954;52.624;9.212;2023-05-07T09:01:38;7.63;;;7.03;;
7817;SDS011;3954;52.624;9.212;2023-05-07T09:04:06;8.40;;;7.70;;
7817;SDS011;3954;52.624;9.212;2023-05-07T09:06:32;7.78;;;7.07;;
7817;SDS011;3954;52.624;9.212;2023-05-07T09:08:58;8.23;;;7.53;;
7817;SDS011;3954;52.624;9.212;2023-05-07T09:11:26;8.30;;;7.40;;
7817;SDS011;3954;52.624;9.212;2023-05-07T09:13:53;8.00;;;7.40;;
7817;SDS011;3954;52.624;9.212;2023-05-07T09:16:20;8.10;;;7.40;;
7817;SDS011;3954;52.624;9.212;2023-05-07T09:18:47;8.32;;;7.57;;
7817;SDS011;3954;52.624;9.212;2023-05-07T09:21:15;7.85;;;7.18;;
7817;SDS011;3954;52.624;9.212;2023-05-07T09:23:41;8.40;;;7.68;;
7817;SDS011;3954;52.624;9.212;2023-05-07T09:26:07;7.95;;;7.25;;
7817;SDS011;3954;52.624;9.212;2023-05-07T09:28:40;7.60;;;6.80;;
7817;SDS011;3954;52.624;9.212;2023-05-07T09:31:09;8.10;;;7.50;;
7817;SDS011;3954;52.624;9.212;2023-05-07T09:33:35;8.13;;;7.53;;
7817;SDS011;3954;52.624;9.212;2023-05-07T09:36:04;9.38;;;8.57;;
7817;SDS011;3954;52.624;9.212;2023-05-07T09:38:32;31.58;;;28.55;;
7817;SDS011;3954;52.624;9.212;2023-05-07T09:41:02;20.27;;;18.52;;
7817;SDS011;3954;52.624;9.212;2023-05-07T09:43:31;20.25;;;18.45;;
7817;SDS011;3954;52.624;9.212;2023-05-07T09:45:58;13.77;;;12.68;;
7817;SDS011;3954;52.624;9.212;2023-05-07T09:48:24;8.32;;;7.57;;
7817;SDS011;3954;52.624;9.212;2023-05-07T09:50:51;11.40;;;10.50;;
7817;SDS011;3954;52.624;9.212;2023-05-07T09:53:18;9.38;;;8.65;;
7817;SDS011;3954;52.624;9.212;2023-05-07T09:55:48;6.80;;;6.30;;
7817;SDS011;3954;52.624;9.212;2023-05-07T09:58:14;7.05;;;6.45;;
7817;SDS011;3954;52.624;9.212;2023-05-07T10:00:41;7.03;;;6.43;;
7817;SDS011;3954;52.624;9.212;2023-05-07T10:03:07;6.72;;;6.13;;
7817;SDS011;3954;52.624;9.212;2023-05-07T10:05:34;6.37;;;5.83;;
7817;SDS011;3954;52.624;9.212;2023-05-07T10:08:01;6.73;;;6.13;;
7817;SDS011;3954;52.624;9.212;2023-05-07T10:10:27;5.90;;;5.40;;
7817;SDS011;3954;52.624;9.212;2023-05-07T10:12:54;6.30;;;5.80;;
7817;SDS011;3954;52.624;9.212;2023-05-07T10:15:21;6.15;;;5.65;;
7817;SDS011;3954;52.624;9.212;2023-05-07T10:17:49;6.25;;;5.75;;
7817;SDS011;3954;52.624;9.212;2023-05-07T10:20:15;6.30;;;5.80;;
7817;SDS011;3954;52.624;9.212;2023-05-07T10:22:43;6.43;;;5.85;;
7817;SDS011;3954;52.624;9.212;2023-05-07T10:25:13;5.85;;;5.35;;
7817;SDS011;3954;52.624;9.212;2023-05-07T10:27:40;6.90;;;6.30;;
7817;SDS011;3954;52.624;9.212;2023-05-07T10:30:11;6.43;;;5.93;;
7817;SDS011;3954;52.624;9.212;2023-05-07T10:32:39;6.53;;;5.93;;
7817;SDS011;3954;52.624;9.212;2023-05-07T10:35:06;6.85;;;6.25;;
7817;SDS011;3954;52.624;9.212;2023-05-07T10:37:36;6.88;;;6.28;;
7817;SDS011;3954;52.624;9.212;2023-05-07T10:40:02;6.05;;;5.55;;
7817;SDS011;3954;52.624;9.212;2023-05-07T10:42:28;6.32;;;5.80;;
7817;SDS011;3954;52.624;9.212;2023-05-07T10:44:54;5.97;;;5.38;;
7817;SDS011;3954;52.624;9.212;2023-05-07T10:47:21;6.63;;;5.80;;
7817;SDS011;3954;52.624;9.212;2023-05-07T10:52:32;6.22;;;5.68;;
7817;SDS011;3954;52.624;9.212;2023-05-07T10:57:43;5.90;;;5.40;;
7817;SDS011;3954;52.624;9.212;2023-05-07T11:03:07;5.82;;;5.32;;
7817;SDS011;3954;52.624;9.212;2023-05-07T11:05:34;6.53;;;5.93;;
7817;SDS011;3954;52.624;9.212;2023-05-07T11:08:00;5.90;;;5.40;;
7817;SDS011;3954;52.624;9.212;2023-05-07T11:13:07;5.68;;;5.20;;
7817;SDS011;3954;52.624;9.212;2023-05-07T11:15:40;6.00;;;5.50;;
7817;SDS011;3954;52.624;9.212;2023-05-07T11:18:09;7.72;;;5.90;;
7817;SDS011;3954;52.624;9.212;2023-05-07T11:20:52;6.00;;;5.50;;
7817;SDS011;3954;52.624;9.212;2023-05-07T11:26:03;5.65;;;5.15;;
7817;SDS011;3954;52.624;9.212;2023-05-07T11:28:30;6.40;;;5.80;;
7817;SDS011;3954;52.624;9.212;2023-05-07T11:30:56;6.45;;;5.85;;
7817;SDS011;3954;52.624;9.212;2023-05-07T11:33:24;6.18;;;5.68;;
7817;SDS011;3954;52.624;9.212;2023-05-07T11:35:51;6.88;;;6.18;;
7817;SDS011;3954;52.624;9.212;2023-05-07T11:38:18;6.47;;;5.97;;
7817;SDS011;3954;52.624;9.212;2023-05-07T11:40:48;6.63;;;6.03;;
7817;SDS011;3954;52.624;9.212;2023-05-07T11:43:14;5.82;;;5.40;;
7817;SDS011;3954;52.624;9.212;2023-05-07T11:45:40;6.57;;;6.03;;
7817;SDS011;3954;52.624;9.212;2023-05-07T11:48:06;6.95;;;6.35;;
7817;SDS011;3954;52.624;9.212;2023-05-07T11:50:34;7.57;;;6.90;;
7817;SDS011;3954;52.624;9.212;2023-05-07T11:53:00;6.57;;;5.97;;
7817;SDS011;3954;52.624;9.212;2023-05-07T11:55:26;6.70;;;6.10;;
7817;SDS011;3954;52.624;9.212;2023-05-07T11:57:52;6.40;;;5.90;;
7817;SDS011;3954;52.624;9.212;2023-05-07T12:00:18;6.13;;;5.63;;
7817;SDS011;3954;52.624;9.212;2023-05-07T12:02:44;6.30;;;5.80;;
7817;SDS011;3954;52.624;9.212;2023-05-07T12:05:11;6.47;;;5.90;;
7817;SDS011;3954;52.624;9.212;2023-05-07T12:07:38;7.30;;;6.63;;
7817;SDS011;3954;52.624;9.212;2023-05-07T12:10:04;6.65;;;6.15;;
7817;SDS011;3954;52.624;9.212;2023-05-07T12:12:31;7.07;;;6.47;;
7817;SDS011;3954;52.624;9.212;2023-05-07T12:14:57;6.75;;;6.15;;
7817;SDS011;3954;52.624;9.212;2023-05-07T12:17:23;11.35;;;10.30;;
7817;SDS011;3954;52.624;9.212;2023-05-07T12:19:49;7.10;;;6.50;;
7817;SDS011;3954;52.624;9.212;2023-05-07T12:22:15;6.88;;;6.10;;
7817;SDS011;3954;52.624;9.212;2023-05-07T12:24:46;6.75;;;6.15;;
7817;SDS011;3954;52.624;9.212;2023-05-07T12:27:12;6.70;;;6.10;;
7817;SDS011;3954;52.624;9.212;2023-05-07T12:29:39;6.43;;;5.82;;
7817;SDS011;3954;52.624;9.212;2023-05-07T12:32:09;6.07;;;5.57;;
7817;SDS011;3954;52.624;9.212;2023-05-07T12:34:38;5.93;;;5.43;;
7817;SDS011;3954;52.624;9.212;2023-05-07T12:37:04;5.90;;;5.40;;
7817;SDS011;3954;52.624;9.212;2023-05-07T12:39:30;5.80;;;5.30;;
7817;SDS011;3954;52.624;9.212;2023-05-07T12:41:58;5.95;;;5.35;;
7817;SDS011;3954;52.624;9.212;2023-05-07T12:44:25;5.28;;;4.88;;
7817;SDS011;3954;52.624;9.212;2023-05-07T12:46:51;6.68;;;6.07;;
7817;SDS011;3954;52.624;9.212;2023-05-07T12:49:17;6.17;;;5.67;;
7817;SDS011;3954;52.624;9.212;2023-05-07T12:51:43;7.10;;;6.50;;
7817;SDS011;3954;52.624;9.212;2023-05-07T12:54:09;5.28;;;4.78;;
7817;SDS011;3954;52.624;9.212;2023-05-07T12:56:35;5.40;;;4.90;;
7817;SDS011;3954;52.624;9.212;2023-05-07T12:59:03;9.35;;;8.55;;
7817;SDS011;3954;52.624;9.212;2023-05-07T13:01:29;5.43;;;4.95;;
7817;SDS011;3954;52.624;9.212;2023-05-07T13:03:58;5.20;;;4.70;;
7817;SDS011;3954;52.624;9.212;2023-05-07T13:06:26;4.65;;;4.25;;
7817;SDS011;3954;52.624;9.212;2023-05-07T13:08:52;5.33;;;3.90;;
7817;SDS011;3954;52.624;9.212;2023-05-07T13:11:18;4.70;;;4.30;;
7817;SDS011;3954;52.624;9.212;2023-05-07T13:13:45;4.82;;;4.43;;
7817;SDS011;3954;52.624;9.212;2023-05-07T13:16:12;4.60;;;4.20;;
7817;SDS011;3954;52.624;9.212;2023-05-07T13:18:39;5.80;;;4.60;;
7817;SDS011;3954;52.624;9.212;2023-05-07T13:21:05;4.60;;;4.20;;
7817;SDS011;3954;52.624;9.212;2023-05-07T13:23:31;4.73;;;4.33;;
7817;SDS011;3954;52.624;9.212;2023-05-07T13:25:57;5.23;;;4.73;;
7817;SDS011;3954;52.624;9.212;2023-05-07T13:28:24;6.13;;;5.63;;
7817;SDS011;3954;52.624;9.212;2023-05-07T13:30:50;7.63;;;5.87;;
7817;SDS011;3954;52.624;9.212;2023-05-07T13:33:18;5.30;;;4.80;;
7817;SDS011;3954;52.624;9.212;2023-05-07T13:35:44;5.97;;;5.37;;
7817;SDS011;3954;52.624;9.212;2023-05-07T13:38:10;5.97;;;5.37;;
7817;SDS011;3954;52.624;9.212;2023-05-07T13:40:36;4.50;;;4.07;;
7817;SDS011;3954;52.624;9.212;2023-05-07T13:43:02;5.07;;;4.27;;
7817;SDS011;3954;52.624;9.212;2023-05-07T13:45:28;4.27;;;3.97;;
7817;SDS011;3954;52.624;9.212;2023-05-07T13:47:54;4.63;;;4.23;;
7817;SDS011;3954;52.624;9.212;2023-05-07T13:50:22;4.20;;;3.83;;
7817;SDS011;3954;52.624;9.212;2023-05-07T13:52:48;4.30;;;3.67;;
7817;SDS011;3954;52.624;9.212;2023-05-07T13:55:17;4.57;;;4.17;;
7817;SDS011;3954;52.624;9.212;2023-05-07T13:57:43;4.80;;;4.00;;
7817;SDS011;3954;52.624;9.212;2023-05-07T14:00:10;3.57;;;3.27;;
7817;SDS011;3954;52.624;9.212;2023-05-07T14:02:36;3.83;;;3.43;;
7817;SDS011;3954;52.624;9.212;2023-05-07T14:05:02;3.67;;;3.38;;
7817;SDS011;3954;52.624;9.212;2023-05-07T14:07:30;4.33;;;3.93;;
7817;SDS011;3954;52.624;9.212;2023-05-07T14:09:56;3.50;;;3.20;;
7817;SDS011;3954;52.624;9.212;2023-05-07T14:12:22;3.90;;;3.53;;
7817;SDS011;3954;52.624;9.212;2023-05-07T14:14:48;4.88;;;3.55;;
7817;SDS011;3954;52.624;9.212;2023-05-07T14:17:15;4.07;;;3.67;;
7817;SDS011;3954;52.624;9.212;2023-05-07T14:19:41;3.92;;;3.53;;
7817;SDS011;3954;52.624;9.212;2023-05-07T14:22:07;3.80;;;3.50;;
7817;SDS011;3954;52.624;9.212;2023-05-07T14:24:34;3.90;;;3.60;;
7817;SDS011;3954;52.624;9.212;2023-05-07T14:27:00;4.13;;;3.72;;
7817;SDS011;3954;52.624;9.212;2023-05-07T14:29:26;4.43;;;4.03;;
7817;SDS011;3954;52.624;9.212;2023-05-07T14:31:52;4.53;;;4.00;;
7817;SDS011;3954;52.624;9.212;2023-05-07T14:34:18;3.90;;;3.43;;
7817;SDS011;3954;52.624;9.212;2023-05-07T14:36:44;4.00;;;3.70;;
7817;SDS011;3954;52.624;9.212;2023-05-07T14:39:10;5.07;;;3.75;;
7817;SDS011;3954;52.624;9.212;2023-05-07T14:41:37;4.00;;;3.70;;
7817;SDS011;3954;52.624;9.212;2023-05-07T14:44:03;3.85;;;3.55;;
7817;SDS011;3954;52.624;9.212;2023-05-07T14:46:29;4.10;;;3.80;;
7817;SDS011;3954;52.624;9.212;2023-05-07T14:48:55;4.57;;;4.18;;
7817;SDS011;3954;52.624;9.212;2023-05-07T14:51:22;4.70;;;4.18;;
7817;SDS011;3954;52.624;9.212;2023-05-07T14:53:49;4.93;;;3.92;;
7817;SDS011;3954;52.624;9.212;2023-05-07T14:56:16;4.78;;;4.38;;
7817;SDS011;3954;52.624;9.212;2023-05-07T14:58:43;4.15;;;3.85;;
7817;SDS011;3954;52.624;9.212;2023-05-07T15:01:09;4.03;;;3.63;;
7817;SDS011;3954;52.624;9.212;2023-05-07T15:03:35;4.20;;;3.83;;
7817;SDS011;3954;52.624;9.212;2023-05-07T15:06:01;4.80;;;3.97;;
7817;SDS011;3954;52.624;9.212;2023-05-07T15:08:27;4.35;;;3.95;;
7817;SDS011;3954;52.624;9.212;2023-05-07T15:10:53;4.63;;;4.22;;
7817;SDS011;3954;52.624;9.212;2023-05-07T15:13:20;5.23;;;4.73;;
7817;SDS011;3954;52.624;9.212;2023-05-07T15:15:47;4.90;;;4.50;;